Time,TemperatureF,DewpointF,PressureIn,WindDirection,WindDirectionDegrees,WindSpeedMPH,WindSpeedGustMPH,Humidity,HourlyPrecipIn,Conditions,Clouds,dailyrainin,SoftwareType,DateUTC
2013-01-06 00:00:00,65.1,61.0,29.91,SW,225,0.0,0.0,83,0.00,,,0.00,fowsr,2013-01-06 05:00:00,
2013-01-06 00:05:00,65.1,61.0,29.91,SW,225,0.0,0.0,83,0.00,,,0.00,fowsr,2013-01-06 05:05:00,
2013-01-06 00:10:00,65.1,61.0,29.91,SW,225,0.0,0.0,83,0.00,,,0.00,fowsr,2013-01-06 05:10:00,
2013-01-06 00:15:00,65.1,61.0,29.90,SW,225,0.0,0.0,83,0.00,,,0.00,fowsr,2013-01-06 05:15:00,
2013-01-06 00:20:00,65.1,61.0,29.90,SW,225,0.0,0.0,83,0.00,,,0.00,fowsr,2013-01-06 05:20:00,
2013-01-06 00:25:00,65.1,61.0,29.90,SW,225,0.0,0.0,83,0.00,,,0.00,fowsr,2013-01-06 05:25:00,
2013-01-06 00:30:00,65.1,61.0,29.89,SW,225,0.0,0.0,83,0.00,,,0.00,fowsr,2013-01-06 05:30:00,
2013-01-06 00:35:00,65.1,61.0,29.90,SW,225,0.0,0.0,83,0.00,,,0.00,fowsr,2013-01-06 05:35:00,
2013-01-06 00:40:00,65.1,61.0,29.89,SW,225,0.0,0.0,83,0.00,,,0.00,fowsr,2013-01-06 05:40:00,
2013-01-06 00:45:00,65.1,61.0,29.89,SW,225,0.0,0.0,83,0.00,,,0.00,fowsr,2013-01-06 05:45:00,
2013-01-06 00:50:00,65.1,61.0,29.89,SW,225,0.0,0.0,83,0.00,,,0.00,fowsr,2013-01-06 05:50:00,
2013-01-06 00:55:00,65.1,61.0,29.89,SW,225,0.0,0.0,83,0.00,,,0.00,fowsr,2013-01-06 05:55:00,
2013-01-06 01:00:00,65.1,61.0,29.89,SW,225,0.0,0.0,83,0.00,,,0.00,fowsr,2013-01-06 06:00:00,
2013-01-06 01:05:00,64.9,61.1,29.88,SW,225,0.0,0.0,84,0.00,,,0.00,fowsr,2013-01-06 06:05:00,
2013-01-06 01:10:00,64.9,61.1,29.88,SW,225,0.0,0.0,84,0.00,,,0.00,fowsr,2013-01-06 06:10:00,
2013-01-06 01:15:00,64.9,61.1,29.88,SW,225,0.0,0.0,84,0.00,,,0.00,fowsr,2013-01-06 06:15:00,
2013-01-06 01:20:00,64.9,61.1,29.88,SW,225,0.0,0.0,84,0.00,,,0.00,fowsr,2013-01-06 06:20:00,
2013-01-06 01:25:00,64.8,60.9,29.87,SW,225,0.0,0.0,84,0.00,,,0.00,fowsr,2013-01-06 06:25:00,
2013-01-06 01:30:00,64.8,60.9,29.87,SW,225,0.0,0.0,84,0.00,,,0.00,fowsr,2013-01-06 06:30:00,
2013-01-06 01:35:00,64.8,60.9,29.87,SW,225,0.0,0.0,84,0.00,,,0.00,fowsr,2013-01-06 06:35:00,
2013-01-06 01:40:00,64.8,61.2,29.87,SW,225,0.0,0.0,85,0.00,,,0.00,fowsr,2013-01-06 06:40:00,
2013-01-06 01:45:00,64.6,61.0,29.87,SW,225,0.0,0.0,85,0.00,,,0.00,fowsr,2013-01-06 06:45:00,
2013-01-06 01:50:00,64.6,61.0,29.87,SW,225,0.0,0.0,85,0.00,,,0.00,fowsr,2013-01-06 06:50:00,
2013-01-06 01:55:00,64.6,61.0,29.87,SW,225,0.0,0.0,85,0.00,,,0.00,fowsr,2013-01-06 06:55:00,
2013-01-06 02:00:00,64.6,61.0,29.86,SW,225,0.0,0.0,85,0.00,,,0.00,fowsr,2013-01-06 07:00:00,
2013-01-06 02:05:00,64.6,61.0,29.86,SW,225,0.0,0.0,85,0.00,,,0.00,fowsr,2013-01-06 07:05:00,
2013-01-06 02:10:00,64.8,61.2,29.86,SW,225,0.0,0.0,85,0.00,,,0.00,fowsr,2013-01-06 07:10:00,
2013-01-06 02:15:00,64.8,61.2,29.86,SW,225,0.0,0.0,85,0.00,,,0.00,fowsr,2013-01-06 07:15:00,
2013-01-06 02:20:00,64.8,61.2,29.86,SW,225,0.0,0.0,85,0.00,,,0.00,fowsr,2013-01-06 07:20:00,
2013-01-06 02:25:00,64.6,61.0,29.86,SW,225,0.0,0.0,85,0.00,,,0.00,fowsr,2013-01-06 07:25:00,
2013-01-06 02:30:00,64.6,61.0,29.86,SW,225,0.0,0.0,85,0.00,,,0.00,fowsr,2013-01-06 07:30:00,
2013-01-06 02:35:00,64.6,61.0,29.86,SW,225,0.0,0.0,85,0.00,,,0.00,fowsr,2013-01-06 07:35:00,
2013-01-06 02:40:00,64.6,61.0,29.86,SW,225,0.0,0.0,85,0.00,,,0.00,fowsr,2013-01-06 07:40:00,
2013-01-06 02:45:00,64.6,61.0,29.87,SW,225,0.0,0.0,85,0.00,,,0.00,fowsr,2013-01-06 07:45:00,
2013-01-06 02:50:00,64.6,61.0,29.86,SW,225,0.0,0.0,85,0.00,,,0.00,fowsr,2013-01-06 07:50:00,
2013-01-06 02:55:00,64.8,61.2,29.86,SW,225,0.0,0.0,85,0.00,,,0.00,fowsr,2013-01-06 07:55:00,
2013-01-06 03:00:00,64.8,61.2,29.86,SW,225,0.0,0.0,85,0.00,,,0.00,fowsr,2013-01-06 08:00:00,
2013-01-06 03:05:00,64.8,61.2,29.86,SW,225,0.0,0.0,85,0.00,,,0.00,fowsr,2013-01-06 08:05:00,
2013-01-06 03:10:00,64.8,61.2,29.86,SW,225,0.0,0.0,85,0.00,,,0.00,fowsr,2013-01-06 08:10:00,
2013-01-06 03:15:00,64.8,61.2,29.86,SW,225,0.0,0.0,85,0.00,,,0.00,fowsr,2013-01-06 08:15:00,
2013-01-06 03:20:00,64.8,61.2,29.86,SW,225,0.0,0.0,85,0.00,,,0.00,fowsr,2013-01-06 08:20:00,
2013-01-06 03:25:00,64.9,61.4,29.86,SW,225,0.0,0.0,85,0.00,,,0.00,fowsr,2013-01-06 08:25:00,
2013-01-06 03:35:00,64.9,61.4,29.86,SW,225,0.0,0.0,85,0.00,,,0.00,fowsr,2013-01-06 08:35:00,
2013-01-06 03:40:00,64.9,61.4,29.86,SW,225,0.0,0.0,85,0.00,,,0.00,fowsr,2013-01-06 08:40:00,
2013-01-06 03:45:00,64.9,61.4,29.85,SW,225,0.0,0.0,85,0.00,,,0.00,fowsr,2013-01-06 08:45:00,
2013-01-06 03:50:00,64.9,61.4,29.86,SW,225,0.0,0.0,85,0.00,,,0.00,fowsr,2013-01-06 08:50:00,
2013-01-06 03:55:00,64.9,61.4,29.85,SW,225,0.0,0.0,85,0.00,,,0.00,fowsr,2013-01-06 08:55:00,
2013-01-06 04:00:00,64.9,61.4,29.85,SW,225,0.0,0.0,85,0.00,,,0.00,fowsr,2013-01-06 09:00:00,
2013-01-06 04:05:00,64.9,61.4,29.85,SW,225,0.0,0.0,85,0.00,,,0.00,fowsr,2013-01-06 09:05:00,
2013-01-06 04:10:00,64.9,61.4,29.85,SW,225,0.0,0.0,85,0.00,,,0.00,fowsr,2013-01-06 09:10:00,
2013-01-06 04:15:00,64.9,61.4,29.85,SW,225,0.0,0.0,85,0.00,,,0.00,fowsr,2013-01-06 09:15:00,
2013-01-06 04:20:00,64.9,61.4,29.85,SW,225,0.0,0.0,85,0.00,,,0.00,fowsr,2013-01-06 09:20:00,
2013-01-06 04:25:00,64.9,61.4,29.85,SW,225,0.0,0.0,85,0.00,,,0.00,fowsr,2013-01-06 09:25:00,
2013-01-06 04:30:00,64.9,61.4,29.84,SW,225,0.0,0.0,85,0.00,,,0.00,fowsr,2013-01-06 09:30:00,
2013-01-06 04:35:00,64.9,61.4,29.84,SW,225,0.0,0.0,85,0.00,,,0.00,fowsr,2013-01-06 09:35:00,
2013-01-06 04:40:00,64.8,61.2,29.84,SW,225,0.0,0.0,85,0.00,,,0.00,fowsr,2013-01-06 09:40:00,
2013-01-06 04:45:00,64.8,61.2,29.84,SW,225,0.0,0.0,85,0.00,,,0.00,fowsr,2013-01-06 09:45:00,
2013-01-06 04:50:00,64.8,61.2,29.84,SW,225,0.0,0.0,85,0.00,,,0.00,fowsr,2013-01-06 09:50:00,
2013-01-06 04:55:00,64.8,61.2,29.84,SW,225,0.0,0.0,85,0.00,,,0.00,fowsr,2013-01-06 09:55:00,
2013-01-06 05:00:00,64.6,61.0,29.84,SW,225,0.0,0.0,85,0.00,,,0.00,fowsr,2013-01-06 10:00:00,
2013-01-06 05:05:00,64.6,61.0,29.84,SW,225,0.0,0.0,85,0.00,,,0.00,fowsr,2013-01-06 10:05:00,
2013-01-06 05:10:00,64.6,61.0,29.84,SW,225,0.0,0.0,85,0.00,,,0.00,fowsr,2013-01-06 10:10:00,
2013-01-06 05:15:00,64.6,61.0,29.84,SW,225,0.0,0.0,85,0.00,,,0.00,fowsr,2013-01-06 10:15:00,
2013-01-06 05:20:00,64.6,60.7,29.83,SW,225,0.0,0.0,84,0.00,,,0.00,fowsr,2013-01-06 10:20:00,
2013-01-06 05:25:00,64.4,60.6,29.83,SW,225,0.0,0.0,84,0.00,,,0.00,fowsr,2013-01-06 10:25:00,
2013-01-06 05:30:00,64.4,60.6,29.83,SW,225,0.0,0.0,84,0.00,,,0.00,fowsr,2013-01-06 10:30:00,
2013-01-06 05:35:00,64.2,60.1,29.83,SW,225,0.0,0.0,83,0.00,,,0.00,fowsr,2013-01-06 10:35:00,
2013-01-06 05:40:00,64.0,60.0,29.83,SW,225,0.0,0.0,83,0.00,,,0.00,fowsr,2013-01-06 10:40:00,
2013-01-06 05:45:00,63.9,59.8,29.84,SW,225,0.0,0.0,83,0.00,,,0.00,fowsr,2013-01-06 10:45:00,
2013-01-06 05:50:00,63.9,59.8,29.84,SW,225,0.0,0.0,83,0.00,,,0.00,fowsr,2013-01-06 10:50:00,
2013-01-06 05:55:00,63.9,59.8,29.84,SW,225,0.0,0.0,83,0.00,,,0.00,fowsr,2013-01-06 10:55:00,
2013-01-06 06:00:00,63.9,59.8,29.84,SW,225,0.0,0.0,83,0.00,,,0.00,fowsr,2013-01-06 11:00:00,
2013-01-06 06:05:00,63.7,59.9,29.84,SW,225,0.0,0.0,84,0.00,,,0.00,fowsr,2013-01-06 11:05:00,
2013-01-06 06:10:00,63.7,59.9,29.85,SW,225,0.0,0.0,84,0.00,,,0.00,fowsr,2013-01-06 11:10:00,
2013-01-06 06:15:00,63.7,59.9,29.84,SW,225,0.0,0.0,84,0.00,,,0.00,fowsr,2013-01-06 11:15:00,
2013-01-06 06:20:00,63.7,59.9,29.84,SW,225,0.0,0.0,84,0.00,,,0.00,fowsr,2013-01-06 11:20:00,
2013-01-06 06:25:00,63.7,59.9,29.84,SW,225,0.0,0.0,84,0.00,,,0.00,fowsr,2013-01-06 11:25:00,
2013-01-06 06:30:00,63.7,60.1,29.84,SW,225,0.0,0.0,85,0.00,,,0.00,fowsr,2013-01-06 11:30:00,
2013-01-06 06:35:00,63.7,60.1,29.84,SW,225,0.0,0.0,85,0.00,,,0.00,fowsr,2013-01-06 11:35:00,
2013-01-06 06:40:00,63.7,60.1,29.84,SW,225,0.0,0.0,85,0.00,,,0.00,fowsr,2013-01-06 11:40:00,
2013-01-06 06:45:00,63.9,60.3,29.84,SW,225,0.0,0.0,85,0.00,,,0.00,fowsr,2013-01-06 11:45:00,
2013-01-06 06:50:00,63.7,60.4,29.84,SW,225,0.0,0.0,86,0.00,,,0.00,fowsr,2013-01-06 11:50:00,
2013-01-06 06:55:00,63.7,60.4,29.85,SW,225,0.0,0.0,86,0.00,,,0.00,fowsr,2013-01-06 11:55:00,
2013-01-06 07:00:00,63.5,60.5,29.85,SW,225,0.0,0.0,87,0.00,,,0.00,fowsr,2013-01-06 12:00:00,
2013-01-06 07:05:00,63.5,60.5,29.85,SW,225,0.0,0.0,87,0.00,,,0.00,fowsr,2013-01-06 12:05:00,
2013-01-06 07:10:00,63.5,60.5,29.85,SW,225,0.0,0.0,87,0.00,,,0.00,fowsr,2013-01-06 12:10:00,
2013-01-06 07:15:00,63.5,60.7,29.85,SW,225,0.0,0.0,88,0.00,,,0.00,fowsr,2013-01-06 12:15:00,
2013-01-06 07:20:00,63.5,60.7,29.85,SW,225,0.0,0.0,88,0.00,,,0.00,fowsr,2013-01-06 12:20:00,
2013-01-06 07:25:00,63.5,60.9,29.85,SW,225,0.0,0.0,89,0.00,,,0.00,fowsr,2013-01-06 12:25:00,
2013-01-06 07:30:00,63.5,60.9,29.85,SW,225,0.0,0.0,89,0.00,,,0.00,fowsr,2013-01-06 12:30:00,
2013-01-06 07:35:00,63.5,60.9,29.86,SW,225,0.0,0.0,89,0.00,,,0.00,fowsr,2013-01-06 12:35:00,
2013-01-06 07:40:00,63.5,61.2,29.85,SW,225,0.0,0.0,90,0.00,,,0.00,fowsr,2013-01-06 12:40:00,
2013-01-06 07:45:00,63.5,61.2,29.86,SW,225,0.0,0.0,90,0.00,,,0.00,fowsr,2013-01-06 12:45:00,
2013-01-06 07:50:00,63.3,61.0,29.86,SW,225,0.0,0.0,90,0.00,,,0.00,fowsr,2013-01-06 12:50:00,
2013-01-06 07:55:00,63.3,61.3,29.86,SW,225,0.0,0.0,91,0.00,,,0.00,fowsr,2013-01-06 12:55:00,
2013-01-06 08:00:00,63.3,61.3,29.86,SW,225,0.0,0.0,91,0.00,,,0.00,fowsr,2013-01-06 13:00:00,
2013-01-06 08:05:00,63.1,61.1,29.86,SW,225,0.0,0.7,91,0.00,,,0.00,fowsr,2013-01-06 13:05:00,
2013-01-06 08:10:00,63.0,60.9,29.86,SW,225,0.0,0.0,91,0.00,,,0.00,fowsr,2013-01-06 13:10:00,
2013-01-06 08:15:00,63.0,60.9,29.86,SW,225,0.0,0.0,91,0.00,,,0.00,fowsr,2013-01-06 13:15:00,
2013-01-06 08:20:00,63.0,60.9,29.86,SW,225,0.0,0.0,91,0.00,,,0.00,fowsr,2013-01-06 13:20:00,
2013-01-06 08:25:00,63.0,61.1,29.86,SW,225,0.0,0.0,92,0.00,,,0.00,fowsr,2013-01-06 13:25:00,
2013-01-06 08:30:00,63.1,61.3,29.85,SW,225,0.0,0.0,92,0.00,,,0.00,fowsr,2013-01-06 13:30:00,
2013-01-06 08:35:00,63.1,61.3,29.85,SW,225,0.0,0.0,92,0.00,,,0.00,fowsr,2013-01-06 13:35:00,
2013-01-06 08:40:00,63.1,61.3,29.85,SW,225,0.0,0.0,92,0.00,,,0.00,fowsr,2013-01-06 13:40:00,
2013-01-06 08:45:00,63.3,61.5,29.86,SW,225,0.0,0.0,92,0.00,,,0.00,fowsr,2013-01-06 13:45:00,
2013-01-06 08:50:00,63.5,61.7,29.86,SW,225,0.0,0.0,92,0.00,,,0.00,fowsr,2013-01-06 13:50:00,
2013-01-06 08:55:00,63.7,61.8,29.86,SW,225,0.0,0.0,92,0.00,,,0.00,fowsr,2013-01-06 13:55:00,
2013-01-06 09:00:00,63.9,62.3,29.86,SW,225,0.0,0.0,93,0.00,,,0.00,fowsr,2013-01-06 14:00:00,
2013-01-06 09:05:00,64.4,63.0,29.86,SW,225,0.0,0.0,94,0.00,,,0.00,fowsr,2013-01-06 14:05:00,
2013-01-06 09:10:00,64.6,63.2,29.86,SW,225,0.0,0.0,94,0.00,,,0.00,fowsr,2013-01-06 14:10:00,
2013-01-06 09:15:00,64.9,63.3,29.86,SW,225,0.0,0.0,93,0.00,,,0.00,fowsr,2013-01-06 14:15:00,
2013-01-06 09:20:00,65.3,63.7,29.86,SW,225,0.0,0.0,93,0.00,,,0.00,fowsr,2013-01-06 14:20:00,
2013-01-06 09:25:00,65.5,63.6,29.86,SW,225,0.0,0.0,92,0.00,,,0.00,fowsr,2013-01-06 14:25:00,
2013-01-06 09:30:00,65.7,63.8,29.86,SW,225,0.0,0.0,92,0.00,,,0.00,fowsr,2013-01-06 14:30:00,
2013-01-06 09:35:00,65.8,63.7,29.86,SW,225,0.0,0.0,91,0.00,,,0.00,fowsr,2013-01-06 14:35:00,
2013-01-06 09:40:00,66.0,63.9,29.87,SW,225,0.0,0.0,91,0.00,,,0.00,fowsr,2013-01-06 14:40:00,
2013-01-06 09:45:00,66.6,64.2,29.87,SW,225,0.0,0.0,90,0.00,,,0.00,fowsr,2013-01-06 14:45:00,
2013-01-06 09:50:00,66.9,64.6,29.87,SW,225,0.0,0.0,90,0.00,,,0.00,fowsr,2013-01-06 14:50:00,
2013-01-06 09:55:00,67.3,64.7,29.87,SW,225,0.0,0.0,89,0.00,,,0.00,fowsr,2013-01-06 14:55:00,
2013-01-06 10:00:00,67.6,65.0,29.87,SW,225,0.0,0.0,89,0.00,,,0.00,fowsr,2013-01-06 15:00:00,
2013-01-06 10:05:00,68.0,64.9,29.86,SW,225,0.0,0.0,87,0.00,,,0.00,fowsr,2013-01-06 15:05:00,
2013-01-06 10:10:00,68.7,65.6,29.87,SW,225,0.0,0.0,87,0.00,,,0.00,fowsr,2013-01-06 15:10:00,
2013-01-06 10:15:00,69.6,66.2,29.87,SW,225,0.0,0.0,86,0.00,,,0.00,fowsr,2013-01-06 15:15:00,
2013-01-06 10:20:00,70.2,66.5,29.86,SW,225,0.0,0.0,85,0.00,,,0.00,fowsr,2013-01-06 15:20:00,
2013-01-06 10:25:00,71.2,67.2,29.87,SW,225,0.0,0.0,84,0.00,,,0.00,fowsr,2013-01-06 15:25:00,
2013-01-06 10:30:00,72.3,67.7,29.87,SW,225,0.0,0.0,82,0.00,,,0.00,fowsr,2013-01-06 15:30:00,
2013-01-06 10:35:00,73.2,68.3,29.86,SW,225,0.0,0.0,81,0.00,,,0.00,fowsr,2013-01-06 15:35:00,
2013-01-06 10:40:00,74.3,68.8,29.86,SW,225,0.0,0.0,79,0.00,,,0.00,fowsr,2013-01-06 15:40:00,
2013-01-06 10:45:00,75.2,69.1,29.86,SW,225,0.0,0.0,77,0.00,,,0.00,fowsr,2013-01-06 15:45:00,
2013-01-06 10:50:00,75.9,69.5,29.86,SW,225,0.0,0.0,76,0.00,,,0.00,fowsr,2013-01-06 15:50:00,
2013-01-06 10:55:00,76.8,70.3,29.85,SW,225,0.0,0.0,76,0.00,,,0.00,fowsr,2013-01-06 15:55:00,
2013-01-06 11:00:00,77.5,70.4,29.85,SW,225,0.0,0.0,74,0.00,,,0.00,fowsr,2013-01-06 16:00:00,
2013-01-06 11:05:00,78.3,70.8,29.85,SW,225,0.0,0.0,73,0.00,,,0.00,fowsr,2013-01-06 16:05:00,
2013-01-06 11:10:00,79.0,71.2,29.85,SW,225,0.0,0.0,72,0.00,,,0.00,fowsr,2013-01-06 16:10:00,
2013-01-06 11:15:00,79.5,71.3,29.85,SW,225,0.0,0.0,71,0.00,,,0.00,fowsr,2013-01-06 16:15:00,
2013-01-06 11:20:00,80.1,71.5,29.85,SW,225,0.0,0.0,70,0.00,,,0.00,fowsr,2013-01-06 16:20:00,
2013-01-06 11:25:00,80.4,71.2,29.84,SW,225,0.0,0.0,68,0.00,,,0.00,fowsr,2013-01-06 16:25:00,
2013-01-06 11:30:00,80.6,71.0,29.84,SW,225,0.0,0.0,67,0.00,,,0.00,fowsr,2013-01-06 16:30:00,
2013-01-06 11:35:00,80.8,71.2,29.84,SW,225,0.0,0.0,67,0.00,,,0.00,fowsr,2013-01-06 16:35:00,
2013-01-06 11:40:00,81.3,71.3,29.84,SW,225,0.0,0.0,66,0.00,,,0.00,fowsr,2013-01-06 16:40:00,
2013-01-06 11:45:00,81.7,71.7,29.84,SW,225,0.0,0.0,66,0.00,,,0.00,fowsr,2013-01-06 16:45:00,
2013-01-06 11:50:00,81.7,71.7,29.83,SW,225,0.0,0.0,66,0.00,,,0.00,fowsr,2013-01-06 16:50:00,
2013-01-06 11:55:00,82.0,71.7,29.83,SW,225,0.0,0.0,65,0.00,,,0.00,fowsr,2013-01-06 16:55:00,
2013-01-06 12:00:00,82.0,71.3,29.83,SW,225,0.0,0.0,64,0.00,,,0.00,fowsr,2013-01-06 17:00:00,
2013-01-06 12:05:00,81.7,70.6,29.83,SW,225,0.0,0.0,63,0.00,,,0.00,fowsr,2013-01-06 17:05:00,
2013-01-06 12:10:00,81.7,70.6,29.82,SW,225,0.0,0.0,63,0.00,,,0.00,fowsr,2013-01-06 17:10:00,
2013-01-06 12:15:00,81.3,70.6,29.82,SW,225,0.0,0.0,64,0.00,,,0.00,fowsr,2013-01-06 17:15:00,
2013-01-06 12:20:00,81.3,70.6,29.82,SW,225,0.0,0.0,64,0.00,,,0.00,fowsr,2013-01-06 17:20:00,
2013-01-06 12:25:00,81.7,71.0,29.81,SW,225,0.0,0.0,64,0.00,,,0.00,fowsr,2013-01-06 17:25:00,
2013-01-06 12:30:00,81.7,71.0,29.81,SW,225,0.0,0.0,64,0.00,,,0.00,fowsr,2013-01-06 17:30:00,
2013-01-06 12:35:00,81.7,71.0,29.81,SW,225,0.0,0.0,64,0.00,,,0.00,fowsr,2013-01-06 17:35:00,
2013-01-06 12:40:00,81.7,70.6,29.81,SW,225,0.0,0.0,63,0.00,,,0.00,fowsr,2013-01-06 17:40:00,
2013-01-06 12:45:00,81.9,70.8,29.80,SW,225,0.0,0.0,63,0.00,,,0.00,fowsr,2013-01-06 17:45:00,
2013-01-06 12:50:00,81.7,70.6,29.80,SW,225,0.0,0.0,63,0.00,,,0.00,fowsr,2013-01-06 17:50:00,
2013-01-06 12:55:00,81.7,71.0,29.79,SW,225,0.0,0.0,64,0.00,,,0.00,fowsr,2013-01-06 17:55:00,
2013-01-06 13:00:00,81.7,71.0,29.80,SW,225,0.0,0.0,64,0.00,,,0.00,fowsr,2013-01-06 18:00:00,
2013-01-06 13:05:00,81.3,70.6,29.79,SW,225,0.0,0.0,64,0.00,,,0.00,fowsr,2013-01-06 18:05:00,
2013-01-06 13:10:00,81.1,70.5,29.79,SW,225,0.0,0.0,64,0.00,,,0.00,fowsr,2013-01-06 18:10:00,
2013-01-06 13:15:00,81.1,70.5,29.79,SW,225,0.0,0.0,64,0.00,,,0.00,fowsr,2013-01-06 18:15:00,
2013-01-06 13:20:00,81.3,70.6,29.79,SW,225,0.0,0.0,64,0.00,,,0.00,fowsr,2013-01-06 18:20:00,
2013-01-06 13:25:00,81.7,71.0,29.78,SW,225,0.0,0.0,64,0.00,,,0.00,fowsr,2013-01-06 18:25:00,
2013-01-06 13:30:00,81.7,71.0,29.78,SW,225,0.0,0.0,64,0.00,,,0.00,fowsr,2013-01-06 18:30:00,
2013-01-06 13:35:00,81.5,70.8,29.78,SW,225,0.0,0.0,64,0.00,,,0.00,fowsr,2013-01-06 18:35:00,
2013-01-06 13:40:00,81.7,71.0,29.77,SW,225,0.0,0.0,64,0.00,,,0.00,fowsr,2013-01-06 18:40:00,
2013-01-06 13:45:00,81.7,71.0,29.77,SW,225,0.0,0.0,64,0.00,,,0.00,fowsr,2013-01-06 18:45:00,
2013-01-06 13:50:00,81.7,71.0,29.77,SW,225,0.0,0.0,64,0.00,,,0.00,fowsr,2013-01-06 18:50:00,
2013-01-06 13:55:00,81.9,71.1,29.77,SW,225,0.0,0.0,64,0.00,,,0.00,fowsr,2013-01-06 18:55:00,
2013-01-06 14:00:00,81.9,71.1,29.77,SW,225,0.0,0.0,64,0.00,,,0.00,fowsr,2013-01-06 19:00:00,
2013-01-06 14:05:00,81.9,70.8,29.77,SW,225,0.0,0.0,63,0.00,,,0.00,fowsr,2013-01-06 19:05:00,
2013-01-06 14:10:00,81.7,70.6,29.77,SW,225,0.0,0.0,63,0.00,,,0.00,fowsr,2013-01-06 19:10:00,
2013-01-06 14:15:00,81.5,70.8,29.76,SW,225,0.0,0.0,64,0.00,,,0.00,fowsr,2013-01-06 19:15:00,
2013-01-06 14:20:00,81.3,70.6,29.76,SW,225,0.0,0.0,64,0.00,,,0.00,fowsr,2013-01-06 19:20:00,
2013-01-06 14:25:00,81.1,70.5,29.76,SW,225,0.0,0.0,64,0.00,,,0.00,fowsr,2013-01-06 19:25:00,
2013-01-06 14:30:00,81.1,70.5,29.76,SW,225,0.0,0.0,64,0.00,,,0.00,fowsr,2013-01-06 19:30:00,
2013-01-06 14:35:00,81.3,70.6,29.76,SW,225,0.0,0.0,64,0.00,,,0.00,fowsr,2013-01-06 19:35:00,
2013-01-06 14:40:00,81.5,70.8,29.76,SW,225,0.0,0.0,64,0.00,,,0.00,fowsr,2013-01-06 19:40:00,
2013-01-06 14:45:00,81.5,70.8,29.76,SW,225,0.0,0.0,64,0.00,,,0.00,fowsr,2013-01-06 19:45:00,
2013-01-06 14:51:00,81.3,70.6,29.76,SW,225,0.0,0.0,64,0.00,,,0.00,fowsr,2013-01-06 19:51:00,
2013-01-06 15:00:00,81.3,70.6,29.76,SW,225,0.0,0.0,64,0.00,,,0.00,fowsr,2013-01-06 20:00:00,
2013-01-06 15:05:00,81.1,70.5,29.76,SW,225,0.0,0.0,64,0.00,,,0.00,fowsr,2013-01-06 20:05:00,
2013-01-06 15:11:00,81.1,70.5,29.76,SW,225,0.0,0.0,64,0.00,,,0.00,fowsr,2013-01-06 20:11:00,
2013-01-06 15:15:00,81.1,70.5,29.76,SW,225,0.0,0.0,64,0.00,,,0.00,fowsr,2013-01-06 20:15:00,
2013-01-06 15:20:00,81.1,70.5,29.76,SW,225,0.0,0.0,64,0.00,,,0.00,fowsr,2013-01-06 20:20:00,
2013-01-06 15:25:00,81.1,70.5,29.75,SW,225,0.0,0.0,64,0.00,,,0.00,fowsr,2013-01-06 20:25:00,
2013-01-06 15:30:00,81.0,70.3,29.75,SW,225,0.0,0.0,64,0.00,,,0.00,fowsr,2013-01-06 20:30:00,
2013-01-06 15:35:00,81.0,70.3,29.76,SW,225,0.0,0.0,64,0.00,,,0.00,fowsr,2013-01-06 20:35:00,
2013-01-06 15:40:00,80.8,70.1,29.76,SW,225,0.0,0.0,64,0.00,,,0.00,fowsr,2013-01-06 20:40:00,
2013-01-06 15:45:00,80.8,70.1,29.75,SW,225,0.0,0.0,64,0.00,,,0.00,fowsr,2013-01-06 20:45:00,
2013-01-06 15:50:00,80.6,70.0,29.75,SW,225,0.0,0.0,64,0.00,,,0.00,fowsr,2013-01-06 20:50:00,
2013-01-06 15:55:00,80.4,70.1,29.76,SW,225,0.0,0.0,65,0.00,,,0.00,fowsr,2013-01-06 20:55:00,
2013-01-06 16:00:00,80.4,70.1,29.75,SW,225,0.0,0.0,65,0.00,,,0.00,fowsr,2013-01-06 21:00:00,
2013-01-06 16:05:00,80.2,70.0,29.76,SW,225,0.0,0.0,65,0.00,,,0.00,fowsr,2013-01-06 21:05:00,
2013-01-06 16:10:00,80.1,69.8,29.75,SW,225,0.0,0.0,65,0.00,,,0.00,fowsr,2013-01-06 21:10:00,
2013-01-06 16:15:00,79.9,69.6,29.75,SW,225,0.0,0.0,65,0.00,,,0.00,fowsr,2013-01-06 21:15:00,
2013-01-06 16:20:00,79.7,69.5,29.75,SW,225,0.0,0.0,65,0.00,,,0.00,fowsr,2013-01-06 21:20:00,
2013-01-06 16:25:00,79.5,69.7,29.76,SW,225,0.0,0.0,66,0.00,,,0.00,fowsr,2013-01-06 21:25:00,
2013-01-06 16:30:00,79.3,69.5,29.76,SW,225,0.0,0.0,66,0.00,,,0.00,fowsr,2013-01-06 21:30:00,
2013-01-06 16:35:00,79.2,69.3,29.76,SW,225,0.0,0.0,66,0.00,,,0.00,fowsr,2013-01-06 21:35:00,
2013-01-06 16:40:00,78.8,69.0,29.76,SW,225,0.0,0.0,66,0.00,,,0.00,fowsr,2013-01-06 21:40:00,
2013-01-06 16:45:00,78.6,69.5,29.76,SW,225,0.0,0.0,68,0.00,,,0.00,fowsr,2013-01-06 21:45:00,
2013-01-06 16:50:00,78.4,69.3,29.76,SW,225,0.0,0.0,68,0.00,,,0.00,fowsr,2013-01-06 21:50:00,
2013-01-06 16:55:00,78.3,69.2,29.76,SW,225,0.0,0.0,68,0.00,,,0.00,fowsr,2013-01-06 21:55:00,
2013-01-06 17:00:00,78.1,69.3,29.76,SW,225,0.0,0.0,69,0.00,,,0.00,fowsr,2013-01-06 22:00:00,
2013-01-06 17:05:00,77.7,69.0,29.76,SW,225,0.0,0.0,69,0.00,,,0.00,fowsr,2013-01-06 22:05:00,
2013-01-06 17:10:00,77.7,69.0,29.77,SW,225,0.0,0.0,69,0.00,,,0.00,fowsr,2013-01-06 22:10:00,
2013-01-06 17:15:00,77.5,68.8,29.77,SW,225,0.0,0.0,69,0.00,,,0.00,fowsr,2013-01-06 22:15:00,
2013-01-06 17:20:00,77.4,69.0,29.77,SW,225,0.0,0.0,70,0.00,,,0.00,fowsr,2013-01-06 22:20:00,
2013-01-06 17:25:00,77.2,68.8,29.77,SW,225,0.0,0.0,70,0.00,,,0.00,fowsr,2013-01-06 22:25:00,
2013-01-06 17:30:00,77.0,68.6,29.77,SW,225,0.0,0.0,70,0.00,,,0.00,fowsr,2013-01-06 22:30:00,
2013-01-06 17:35:00,76.8,69.1,29.77,SW,225,0.0,0.0,72,0.00,,,0.00,fowsr,2013-01-06 22:35:00,
2013-01-06 17:40:00,76.5,68.8,29.77,SW,225,0.0,0.0,72,0.00,,,0.00,fowsr,2013-01-06 22:40:00,
2013-01-06 17:45:00,76.3,68.6,29.77,SW,225,0.0,0.0,72,0.00,,,0.00,fowsr,2013-01-06 22:45:00,
2013-01-06 17:50:00,76.1,68.7,29.77,SW,225,0.0,0.0,73,0.00,,,0.00,fowsr,2013-01-06 22:50:00,
2013-01-06 17:55:00,75.7,68.4,29.77,SW,225,0.0,0.0,73,0.00,,,0.00,fowsr,2013-01-06 22:55:00,
2013-01-06 18:00:00,75.6,68.2,29.77,SW,225,0.0,0.0,73,0.00,,,0.00,fowsr,2013-01-06 23:00:00,
2013-01-06 18:05:00,75.2,68.2,29.77,SW,225,0.0,0.0,74,0.00,,,0.00,fowsr,2013-01-06 23:05:00,
2013-01-06 18:10:00,74.8,68.1,29.77,SW,225,0.0,0.0,75,0.00,,,0.00,fowsr,2013-01-06 23:10:00,
2013-01-06 18:15:00,74.7,68.0,29.78,SW,225,0.0,0.0,75,0.00,,,0.00,fowsr,2013-01-06 23:15:00,
2013-01-06 18:20:00,74.5,68.1,29.78,SW,225,0.0,0.0,76,0.00,,,0.00,fowsr,2013-01-06 23:20:00,
2013-01-06 18:25:00,74.3,67.9,29.78,SW,225,0.0,0.0,76,0.00,,,0.00,fowsr,2013-01-06 23:25:00,
2013-01-06 18:30:00,74.1,67.8,29.79,SW,225,0.0,0.0,76,0.00,,,0.00,fowsr,2013-01-06 23:30:00,
2013-01-06 18:35:00,74.1,67.8,29.79,SW,225,0.0,0.0,76,0.00,,,0.00,fowsr,2013-01-06 23:35:00,
2013-01-06 18:40:00,73.8,67.4,29.79,SW,225,0.0,0.0,76,0.00,,,0.00,fowsr,2013-01-06 23:40:00,
2013-01-06 18:45:00,73.8,67.7,29.79,SW,225,0.0,0.0,77,0.00,,,0.00,fowsr,2013-01-06 23:45:00,
2013-01-06 18:50:00,73.8,67.7,29.79,SW,225,0.0,0.0,77,0.00,,,0.00,fowsr,2013-01-06 23:50:00,
2013-01-06 18:55:00,73.6,67.5,29.79,SW,225,0.0,0.0,77,0.00,,,0.00,fowsr,2013-01-06 23:55:00,
2013-01-06 19:00:00,73.4,67.4,29.79,SW,225,0.0,0.0,77,0.00,,,0.00,fowsr,2013-01-07 00:00:00,
2013-01-06 19:05:00,73.2,67.2,29.79,SW,225,0.0,0.0,77,0.00,,,0.00,fowsr,2013-01-07 00:05:00,
2013-01-06 19:10:00,73.0,67.0,29.79,SW,225,0.0,0.0,77,0.00,,,0.00,fowsr,2013-01-07 00:10:00,
2013-01-06 19:15:00,72.9,67.1,29.79,SW,225,0.0,0.0,78,0.00,,,0.00,fowsr,2013-01-07 00:15:00,
2013-01-06 19:20:00,72.7,67.0,29.79,SW,225,0.0,0.0,78,0.00,,,0.00,fowsr,2013-01-07 00:20:00,
2013-01-06 19:25:00,72.5,66.8,29.80,SW,225,0.0,0.0,78,0.00,,,0.00,fowsr,2013-01-07 00:25:00,
2013-01-06 19:30:00,72.3,66.6,29.80,SW,225,0.0,0.0,78,0.00,,,0.00,fowsr,2013-01-07 00:30:00,
2013-01-06 19:35:00,72.1,66.4,29.81,SW,225,0.0,0.0,78,0.00,,,0.00,fowsr,2013-01-07 00:35:00,
2013-01-06 19:40:00,72.0,66.6,29.80,SW,225,0.0,0.0,79,0.00,,,0.00,fowsr,2013-01-07 00:40:00,
2013-01-06 19:45:00,72.0,66.6,29.81,SW,225,0.0,0.0,79,0.00,,,0.00,fowsr,2013-01-07 00:45:00,
2013-01-06 19:50:00,72.0,66.6,29.81,SW,225,0.0,0.0,79,0.00,,,0.00,fowsr,2013-01-07 00:50:00,
2013-01-06 19:55:00,71.8,66.4,29.81,SW,225,0.0,0.0,79,0.00,,,0.00,fowsr,2013-01-07 00:55:00,
2013-01-06 20:00:00,71.8,66.4,29.81,SW,225,0.0,0.0,79,0.00,,,0.00,fowsr,2013-01-07 01:00:00,
2013-01-06 20:05:00,71.6,66.2,29.81,SW,225,0.0,0.0,79,0.00,,,0.00,fowsr,2013-01-07 01:05:00,
2013-01-06 20:10:00,71.6,66.2,29.81,SW,225,0.0,0.0,79,0.00,,,0.00,fowsr,2013-01-07 01:10:00,
2013-01-06 20:15:00,71.6,66.2,29.81,SW,225,0.0,0.0,79,0.00,,,0.00,fowsr,2013-01-07 01:15:00,
2013-01-06 20:20:00,71.6,66.2,29.81,SW,225,0.0,0.0,79,0.00,,,0.00,fowsr,2013-01-07 01:20:00,
2013-01-06 20:25:00,71.4,66.6,29.81,SW,225,0.0,0.0,81,0.00,,,0.00,fowsr,2013-01-07 01:25:00,
2013-01-06 20:30:00,71.2,66.4,29.81,SW,225,0.0,0.0,81,0.00,,,0.00,fowsr,2013-01-07 01:30:00,
2013-01-06 20:35:00,71.2,66.4,29.81,SW,225,0.0,0.0,81,0.00,,,0.00,fowsr,2013-01-07 01:35:00,
2013-01-06 20:40:00,71.1,66.2,29.81,SW,225,0.0,0.0,81,0.00,,,0.00,fowsr,2013-01-07 01:40:00,
2013-01-06 20:45:00,71.1,66.2,29.81,SW,225,0.0,0.0,81,0.00,,,0.00,fowsr,2013-01-07 01:45:00,
2013-01-06 20:50:00,70.9,66.1,29.81,SW,225,0.0,0.0,81,0.00,,,0.00,fowsr,2013-01-07 01:50:00,
2013-01-06 20:55:00,70.9,66.1,29.81,SW,225,0.0,0.0,81,0.00,,,0.00,fowsr,2013-01-07 01:55:00,
2013-01-06 21:00:00,70.9,66.3,29.81,SW,225,0.0,0.0,82,0.00,,,0.00,fowsr,2013-01-07 02:00:00,
2013-01-06 21:05:00,70.9,66.3,29.81,SW,225,0.0,0.0,82,0.00,,,0.00,fowsr,2013-01-07 02:05:00,
2013-01-06 21:10:00,70.9,66.3,29.81,SW,225,0.0,0.0,82,0.00,,,0.00,fowsr,2013-01-07 02:10:00,
2013-01-06 21:15:00,70.7,66.2,29.81,SW,225,0.0,0.0,82,0.00,,,0.00,fowsr,2013-01-07 02:15:00,
2013-01-06 21:20:00,70.7,66.2,29.81,SW,225,0.0,0.0,82,0.00,,,0.00,fowsr,2013-01-07 02:20:00,
2013-01-06 21:25:00,70.7,66.2,29.81,SW,225,0.0,0.0,82,0.00,,,0.00,fowsr,2013-01-07 02:25:00,
2013-01-06 21:30:00,70.5,66.0,29.81,SW,225,0.0,0.0,82,0.00,,,0.00,fowsr,2013-01-07 02:30:00,
2013-01-06 21:35:00,70.5,66.0,29.82,SW,225,0.0,0.0,82,0.00,,,0.00,fowsr,2013-01-07 02:35:00,
2013-01-06 21:40:00,70.5,66.0,29.82,SW,225,0.0,0.0,82,0.00,,,0.00,fowsr,2013-01-07 02:40:00,
2013-01-06 21:45:00,70.5,66.3,29.82,SW,225,0.0,0.0,83,0.00,,,0.00,fowsr,2013-01-07 02:45:00,
2013-01-06 21:50:00,70.3,66.1,29.82,SW,225,0.0,0.0,83,0.00,,,0.00,fowsr,2013-01-07 02:50:00,
2013-01-06 21:55:00,70.3,66.1,29.82,SW,225,0.0,0.0,83,0.00,,,0.00,fowsr,2013-01-07 02:55:00,
2013-01-06 22:00:00,70.2,66.2,29.83,SW,225,0.0,0.0,84,0.00,,,0.00,fowsr,2013-01-07 03:00:00,
2013-01-06 22:05:00,70.2,66.2,29.83,SW,225,0.0,0.0,84,0.00,,,0.00,fowsr,2013-01-07 03:05:00,
2013-01-06 22:10:00,70.0,66.0,29.83,SW,225,0.0,0.0,84,0.00,,,0.00,fowsr,2013-01-07 03:10:00,
2013-01-06 22:15:00,69.8,66.1,29.83,SW,225,0.0,0.0,85,0.00,,,0.00,fowsr,2013-01-07 03:15:00,
2013-01-06 22:20:00,69.6,66.2,29.83,SW,225,0.0,0.0,86,0.00,,,0.00,fowsr,2013-01-07 03:20:00,
2013-01-06 22:25:00,69.6,66.2,29.83,SW,225,0.0,0.0,86,0.00,,,0.00,fowsr,2013-01-07 03:25:00,
2013-01-06 22:30:00,69.4,66.0,29.83,SW,225,0.0,0.0,86,0.00,,,0.00,fowsr,2013-01-07 03:30:00,
2013-01-06 22:35:00,69.1,65.4,29.83,SW,225,0.0,0.0,85,0.00,,,0.00,fowsr,2013-01-07 03:35:00,
2013-01-06 22:40:00,68.7,65.0,29.83,SW,225,0.0,0.0,85,0.00,,,0.00,fowsr,2013-01-07 03:40:00,
2013-01-06 22:45:00,68.5,64.9,29.83,SW,225,0.0,0.0,85,0.00,,,0.00,fowsr,2013-01-07 03:45:00,
2013-01-06 22:50:00,68.2,64.5,29.83,SW,225,0.0,0.0,85,0.00,,,0.00,fowsr,2013-01-07 03:50:00,
2013-01-06 22:55:00,68.0,64.1,29.83,SW,225,0.0,0.0,84,0.00,,,0.00,fowsr,2013-01-07 03:55:00,
2013-01-06 23:00:00,67.5,63.8,29.83,SW,225,0.0,0.0,85,0.00,,,0.00,fowsr,2013-01-07 04:00:00,
2013-01-06 23:05:00,67.5,63.8,29.83,SW,225,0.0,0.0,85,0.00,,,0.00,fowsr,2013-01-07 04:05:00,
2013-01-06 23:10:00,66.9,63.3,29.83,SW,225,0.0,0.0,85,0.00,,,0.00,fowsr,2013-01-07 04:10:00,
2013-01-06 23:15:00,66.7,63.4,29.83,SW,225,0.0,0.0,86,0.00,,,0.00,fowsr,2013-01-07 04:15:00,
2013-01-06 23:20:00,66.6,63.2,29.83,SW,225,0.0,0.0,86,0.00,,,0.00,fowsr,2013-01-07 04:20:00,
2013-01-06 23:25:00,66.6,63.2,29.83,SW,225,0.0,0.0,86,0.00,,,0.00,fowsr,2013-01-07 04:25:00,
2013-01-06 23:30:00,66.4,63.0,29.84,SW,225,0.0,0.0,86,0.00,,,0.00,fowsr,2013-01-07 04:30:00,
2013-01-06 23:35:00,66.2,62.8,29.84,SW,225,0.0,0.7,86,0.00,,,0.00,fowsr,2013-01-07 04:35:00,
2013-01-06 23:40:00,66.2,62.8,29.84,SW,225,0.0,0.0,86,0.00,,,0.00,fowsr,2013-01-07 04:40:00,
2013-01-06 23:45:00,66.0,62.9,29.84,SW,225,0.0,0.0,87,0.00,,,0.00,fowsr,2013-01-07 04:45:00,
2013-01-06 23:50:00,66.0,62.9,29.84,SW,225,0.0,0.0,87,0.00,,,0.00,fowsr,2013-01-07 04:50:00,
2013-01-06 23:55:00,66.0,62.9,29.83,SW,225,0.0,0.0,87,0.00,,,0.00,fowsr,2013-01-07 04:55:00,